Time;durP1;ratioP1;P1;durP2;ratioP2;P2;SDS_P1;SDS_P2;PMS_P1;PMS_P2;Temp;Humidity;BMP_temperature;BMP_pressure;BME280_temperature;BME280_humidity;BME280_pressure;Samples;Min_cycle;Max_cycle;Signal;HPM_P1;HPM_P2
2023/05/06 00:00:36;;;;;;;9.10;7.78;;;;;;;16.87;67.11;97297.56;4931961;28;20199;-80
2023/05/06 00:03:01;;;;;;;11.10;8.05;;;;;;;16.84;66.70;97290.25;4933166;28;20257;-80
2023/05/06 00:05:27;;;;;;;9.98;7.78;;;;;;;16.83;67.43;97289.44;4913296;28;20410;-80
2023/05/06 00:07:53;;;;;;;9.98;7.85;;;;;;;16.88;67.46;97286.00;4900241;28;20300;-80
2023/05/06 00:10:20;;;;;;;9.80;7.63;;;;;;;16.87;66.94;97286.28;4915054;28;20592;-80
2023/05/06 00:12:46;;;;;;;9.35;7.45;;;;;;;16.89;67.39;97279.66;4931818;28;20540;-80
2023/05/06 00:15:12;;;;;;;10.60;6.95;;;;;;;16.87;66.72;97273.91;4930170;28;20251;-79
2023/05/06 00:17:37;;;;;;;11.77;9.00;;;;;;;16.93;67.24;97285.13;4926548;28;20200;-79
2023/05/06 00:20:03;;;;;;;13.13;9.25;;;;;;;16.91;67.06;97277.53;4929354;28;20188;-79
2023/05/06 00:22:30;;;;;;;10.65;8.45;;;;;;;16.97;66.69;97283.53;4911288;28;20586;-78
2023/05/06 00:24:55;;;;;;;10.75;8.80;;;;;;;16.96;66.95;97276.69;4960208;28;20203;-79
2023/05/06 00:27:20;;;;;;;12.38;8.30;;;;;;;16.95;66.56;97278.53;4919599;28;20522;-78
2023/05/06 00:29:47;;;;;;;11.60;9.38;;;;;;;16.94;66.45;97278.81;4903668;28;20565;-80
2023/05/06 00:32:12;;;;;;;11.07;8.05;;;;;;;16.96;66.58;97279.31;4923520;28;20268;-79
2023/05/06 00:34:38;;;;;;;10.25;7.78;;;;;;;16.88;67.12;97267.59;4927904;28;20437;-79
2023/05/06 00:37:03;;;;;;;11.63;9.07;;;;;;;16.92;66.93;97279.09;4932073;28;20157;-79
2023/05/06 00:39:29;;;;;;;12.55;8.45;;;;;;;16.93;66.68;97275.41;4914639;28;20259;-79
2023/05/06 00:42:01;;;;;;;11.68;9.35;;;;;;;16.96;67.05;97274.81;4914028;28;20455;-79
2023/05/06 00:44:27;;;;;;;11.52;8.80;;;;;;;16.89;67.15;97263.09;4916941;28;20702;-79
2023/05/06 00:46:54;;;;;;;11.05;8.30;;;;;;;16.91;67.17;97272.25;4914816;28;20453;-79
2023/05/06 00:49:21;;;;;;;13.18;9.73;;;;;;;16.87;66.99;97271.28;4913286;28;20161;-79
2023/05/06 00:51:47;;;;;;;11.60;8.60;;;;;;;16.92;66.61;97273.84;4912475;28;20631;-79
2023/05/06 00:54:12;;;;;;;11.93;9.48;;;;;;;16.91;67.06;97272.25;4923814;28;20048;-79
2023/05/06 00:56:38;;;;;;;10.52;7.75;;;;;;;16.82;66.90;97258.94;4912038;28;20330;-79
2023/05/06 00:59:03;;;;;;;12.65;9.52;;;;;;;16.89;66.67;97269.13;4948520;28;20086;-80
2023/05/06 01:01:29;;;;;;;13.38;8.63;;;;;;;16.85;66.58;97263.66;4915763;28;20185;-79
2023/05/06 01:03:57;;;;;;;12.18;8.05;;;;;;;16.85;67.00;97268.16;4934465;23;20273;-80
2023/05/06 01:06:36;;;;;;;9.60;7.82;;;;;;;16.96;66.68;97266.94;4908897;28;20291;-80
2023/05/06 01:09:21;;;;;;;13.07;9.15;;;;;;;16.96;67.23;97271.41;4930221;28;20406;-80
2023/05/06 01:12:16;;;;;;;11.43;9.30;;;;;;;16.90;67.46;97264.69;4910135;28;20476;-79
2023/05/06 01:17:45;;;;;;;11.82;9.20;;;;;;;16.90;66.49;97265.47;4549303;22;20378;-79
2023/05/06 01:20:11;;;;;;;13.90;9.82;;;;;;;16.94;67.15;97271.72;4930038;28;20768;-79
2023/05/06 01:22:38;;;;;;;13.73;9.90;;;;;;;16.91;66.89;97269.63;4933182;28;20260;-79
2023/05/06 01:25:04;;;;;;;11.85;9.23;;;;;;;16.89;67.04;97263.88;4912214;28;20193;-79
2023/05/06 01:27:29;;;;;;;12.57;9.25;;;;;;;16.85;66.51;97265.53;4909087;28;20193;-79
2023/05/06 01:29:55;;;;;;;13.68;10.35;;;;;;;16.77;66.46;97264.25;4896242;28;20430;-79
2023/05/06 01:32:41;;;;;;;12.95;9.40;;;;;;;16.81;66.37;97262.66;4929165;28;20217;-80
2023/05/06 01:35:17;;;;;;;13.98;9.60;;;;;;;16.62;66.26;97259.97;4925203;28;20189;-79
2023/05/06 01:37:51;;;;;;;12.43;9.40;;;;;;;16.62;65.74;97265.25;4913354;28;20736;-80
2023/05/06 01:40:17;;;;;;;10.95;8.32;;;;;;;16.51;66.26;97258.53;4912899;28;20200;-79
2023/05/06 01:42:46;;;;;;;13.52;9.70;;;;;;;16.44;65.90;97258.09;4916562;28;20571;-79
2023/05/06 01:45:13;;;;;;;12.40;8.50;;;;;;;16.37;65.89;97265.53;4913553;28;20234;-80
2023/05/06 01:47:40;;;;;;;12.38;9.57;;;;;;;16.28;66.30;97266.13;4930364;28;20299;-79
2023/05/06 01:50:06;;;;;;;12.52;8.85;;;;;;;16.24;66.00;97275.63;4896354;28;20214;-80
2023/05/06 01:52:31;;;;;;;13.00;8.70;;;;;;;16.19;66.13;97280.16;4911522;28;20178;-80
2023/05/06 01:54:57;;;;;;;13.13;8.60;;;;;;;16.15;65.77;97274.66;4901283;28;20389;-79
2023/05/06 01:57:22;;;;;;;12.60;8.75;;;;;;;16.11;65.76;97271.03;4934799;28;20385;-80
2023/05/06 01:59:47;;;;;;;12.77;8.85;;;;;;;16.06;66.01;97274.50;4918100;28;20354;-79
2023/05/06 02:02:13;;;;;;;10.57;7.90;;;;;;;16.04;66.65;97275.81;4914091;28;20260;-79
2023/05/06 02:04:38;;;;;;;13.23;9.45;;;;;;;15.99;66.11;97270.59;4921817;28;20135;-79
2023/05/06 02:07:04;;;;;;;13.57;9.75;;;;;;;16.00;66.35;97274.81;4941341;28;20246;-79
2023/05/06 02:09:29;;;;;;;15.02;9.05;;;;;;;16.01;66.46;97266.66;4924269;28;20273;-78
2023/05/06 02:11:55;;;;;;;15.70;10.63;;;;;;;16.00;66.63;97267.69;4920679;28;20178;-80
2023/05/06 02:14:20;;;;;;;15.80;11.63;;;;;;;16.01;67.19;97269.28;4924418;28;20225;-81
2023/05/06 02:16:45;;;;;;;15.85;10.13;;;;;;;16.05;67.64;97266.88;5046814;23;20435;-80
2023/05/06 02:19:11;;;;;;;17.15;11.18;;;;;;;16.03;67.70;97267.16;4918798;28;20191;-79
2023/05/06 02:21:36;;;;;;;17.08;10.95;;;;;;;16.06;67.74;97265.84;4893933;28;20317;-78
2023/05/06 02:24:02;;;;;;;15.13;10.18;;;;;;;16.10;67.61;97266.84;4919359;28;20213;-79
2023/05/06 02:26:27;;;;;;;16.35;11.15;;;;;;;16.09;67.07;97266.06;4918655;28;20373;-78
2023/05/06 02:28:52;;;;;;;17.60;11.30;;;;;;;16.10;67.30;97267.59;4909286;28;20275;-78
2023/05/06 02:31:18;;;;;;;18.38;11.25;;;;;;;16.07;67.51;97264.75;5446222;22;20021;-79
2023/05/06 02:36:11;;;;;;;17.27;11.02;;;;;;;16.14;67.19;97257.31;4933360;28;20525;-79
2023/05/06 02:38:36;;;;;;;14.93;10.10;;;;;;;16.20;67.19;97258.06;4908738;28;20190;-78
2023/05/06 02:41:02;;;;;;;18.23;11.70;;;;;;;16.21;67.15;97255.19;4899712;28;20265;-78
2023/05/06 02:43:27;;;;;;;18.23;11.98;;;;;;;16.16;67.11;97246.53;4962123;23;20202;-78
2023/05/06 02:45:53;;;;;;;17.35;11.65;;;;;;;16.22;67.51;97250.69;4922833;28;20419;-79
2023/05/06 02:48:18;;;;;;;19.98;12.82;;;;;;;16.24;67.18;97251.97;4921883;28;20253;-78
2023/05/06 02:50:44;;;;;;;17.83;12.27;;;;;;;16.26;66.93;97260.38;4937229;28;20249;-81
2023/05/06 02:53:11;;;;;;;15.98;10.73;;;;;;;16.18;67.75;97245.22;4924644;28;20205;-78
2023/05/06 02:55:37;;;;;;;17.55;11.02;;;;;;;16.19;67.42;97243.38;5050837;23;20439;-78
2023/05/06 02:58:02;;;;;;;18.63;11.63;;;;;;;16.22;66.76;97245.44;4889843;28;20675;-81
2023/05/06 03:00:28;;;;;;;19.70;11.80;;;;;;;16.10;67.13;97233.47;4885508;28;20409;-80
2023/05/06 03:02:53;;;;;;;17.80;11.07;;;;;;;16.09;66.74;97239.00;4907757;28;20215;-79
2023/05/06 03:05:19;;;;;;;15.75;10.73;;;;;;;16.03;66.63;97240.13;4889579;28;20300;-79
2023/05/06 03:07:45;;;;;;;19.00;11.93;;;;;;;15.93;66.83;97233.09;4911080;28;20395;-78
2023/05/06 03:10:11;;;;;;;18.48;11.65;;;;;;;15.93;66.74;97240.22;4902873;28;20592;-81
2023/05/06 03:12:36;;;;;;;18.65;11.35;;;;;;;15.88;67.18;97248.91;4912094;28;20183;-80
2023/05/06 03:15:01;;;;;;;15.13;10.40;;;;;;;15.84;67.20;97240.81;4884367;28;20175;-79
2023/05/06 03:17:27;;;;;;;17.02;11.18;;;;;;;15.80;66.78;97231.13;4877736;28;20288;-79
2023/05/06 03:19:52;;;;;;;19.13;11.45;;;;;;;15.83;67.16;97247.09;4898377;28;20185;-80
2023/05/06 03:24:48;;;;;;;21.20;12.82;;;;;;;15.87;66.89;97253.38;5135580;22;20224;-79
2023/05/06 03:27:13;;;;;;;21.00;12.73;;;;;;;15.84;67.16;97245.28;4926452;28;20175;-79
2023/05/06 03:29:39;;;;;;;19.60;11.70;;;;;;;15.81;67.15;97243.22;4926182;28;20370;-80
2023/05/06 03:32:05;;;;;;;19.92;11.32;;;;;;;15.80;67.58;97245.06;4940054;28;20371;-78
2023/05/06 03:34:30;;;;;;;17.85;10.68;;;;;;;15.81;66.75;97248.47;4914809;28;20240;-78
2023/05/06 03:36:56;;;;;;;18.02;11.07;;;;;;;15.75;67.15;97237.22;4941655;28;20583;-80
2023/05/06 03:39:22;;;;;;;21.05;11.90;;;;;;;15.72;67.13;97243.00;4911191;28;20129;-80
2023/05/06 03:41:47;;;;;;;17.20;10.80;;;;;;;15.74;66.95;97248.75;4940368;28;20432;-79
2023/05/06 03:44:13;;;;;;;21.17;12.63;;;;;;;15.67;67.07;97250.91;4942739;28;20240;-80
2023/05/06 03:46:40;;;;;;;19.25;12.27;;;;;;;15.67;66.84;97250.91;4923574;28;20370;-81
2023/05/06 03:49:06;;;;;;;20.55;11.88;;;;;;;15.66;67.37;97246.69;4935439;28;20276;-78
2023/05/06 03:51:31;;;;;;;21.67;12.98;;;;;;;15.77;67.39;97252.69;4902548;28;20293;-81
2023/05/06 03:53:57;;;;;;;20.58;12.35;;;;;;;15.71;67.27;97250.09;4912164;28;20103;-79
2023/05/06 03:56:22;;;;;;;19.20;12.50;;;;;;;15.67;67.23;97249.06;4915150;28;20170;-78
2023/05/06 03:58:48;;;;;;;20.42;12.52;;;;;;;15.63;66.77;97250.69;4936896;28;20582;-79
2023/05/06 04:01:13;;;;;;;20.23;12.32;;;;;;;15.60;66.93;97250.44;4925155;28;20232;-78
2023/05/06 04:03:39;;;;;;;21.80;13.75;;;;;;;15.57;66.96;97251.75;4897956;28;20367;-79
2023/05/06 04:06:05;;;;;;;24.30;14.13;;;;;;;15.57;67.15;97257.00;4897700;28;20280;-78
2023/05/06 04:08:31;;;;;;;22.00;12.50;;;;;;;15.59;66.86;97254.88;4912126;28;20440;-79
2023/05/06 04:10:56;;;;;;;20.05;11.48;;;;;;;15.60;67.21;97251.22;4907387;28;20461;-79
2023/05/06 04:13:22;;;;;;;21.85;12.35;;;;;;;15.61;67.80;97260.66;4878880;28;20313;-80
2023/05/06 04:15:48;;;;;;;21.75;12.68;;;;;;;15.62;66.87;97258.81;4903965;28;20210;-79
2023/05/06 04:18:17;;;;;;;22.63;12.82;;;;;;;15.60;67.02;97255.69;4902009;28;20187;-78
2023/05/06 04:20:46;;;;;;;23.48;12.52;;;;;;;15.65;67.32;97253.03;4919491;28;20277;-79
2023/05/06 04:23:12;;;;;;;23.00;12.48;;;;;;;15.62;67.15;97264.06;4899055;28;20236;-79
2023/05/06 04:25:38;;;;;;;23.35;14.20;;;;;;;15.68;66.67;97266.38;4917803;28;20358;-80
2023/05/06 04:28:04;;;;;;;21.67;12.32;;;;;;;15.63;67.35;97268.28;4910930;28;20235;-79
2023/05/06 04:30:29;;;;;;;22.83;13.05;;;;;;;15.68;67.49;97268.22;4879467;28;20349;-79
2023/05/06 04:32:54;;;;;;;23.13;13.73;;;;;;;15.68;67.29;97270.84;4898635;28;20401;-79
2023/05/06 04:35:20;;;;;;;22.65;12.32;;;;;;;15.73;67.15;97276.84;4918845;28;20201;-79
2023/05/06 04:37:47;;;;;;;20.17;12.25;;;;;;;15.72;67.26;97272.63;4932964;28;20280;-79
2023/05/06 04:40:13;;;;;;;19.73;12.40;;;;;;;15.74;67.64;97282.88;4883705;28;20167;-79
2023/05/06 04:42:38;;;;;;;20.45;11.82;;;;;;;15.77;67.59;97279.72;4900296;28;20334;-78
2023/05/06 04:45:04;;;;;;;22.90;12.18;;;;;;;15.82;67.33;97284.94;4899369;28;20281;-79
2023/05/06 04:47:30;;;;;;;16.17;11.05;;;;;;;15.86;67.40;97282.53;4897918;28;20217;-79
2023/05/06 04:49:56;;;;;;;17.65;11.02;;;;;;;15.78;67.73;97278.69;4915875;28;20252;-79
2023/05/06 04:52:21;;;;;;;22.38;12.65;;;;;;;15.86;67.80;97282.53;4937166;28;20230;-79
2023/05/06 04:54:46;;;;;;;20.15;12.75;;;;;;;15.97;67.22;97283.22;4905713;28;20444;-79
2023/05/06 04:57:12;;;;;;;18.10;11.65;;;;;;;16.05;67.03;97283.41;4923367;28;20523;-79
2023/05/06 04:59:37;;;;;;;20.05;12.40;;;;;;;16.14;67.39;97286.22;4890370;28;20515;-79
2023/05/06 05:02:03;;;;;;;18.83;11.88;;;;;;;16.08;67.44;97293.38;4930024;28;20205;-79
2023/05/06 05:04:28;;;;;;;16.48;9.98;;;;;;;16.10;67.53;97288.63;4916562;28;20625;-81
2023/05/06 05:06:53;;;;;;;19.17;11.48;;;;;;;16.15;67.61;97292.28;4909496;28;20150;-79
2023/05/06 05:09:19;;;;;;;19.90;11.40;;;;;;;16.19;67.52;97296.69;4898102;28;20191;-78
2023/05/06 05:11:44;;;;;;;18.63;11.43;;;;;;;16.24;67.48;97287.97;4912838;28;20404;-78
2023/05/06 05:14:10;;;;;;;15.93;10.65;;;;;;;16.22;67.30;97304.00;4913387;28;20688;-79
2023/05/06 05:16:35;;;;;;;17.13;10.55;;;;;;;16.25;67.01;97300.06;4912999;28;20403;-79
2023/05/06 05:19:00;;;;;;;19.10;10.52;;;;;;;16.23;67.00;97295.09;4901537;28;20507;-80
2023/05/06 05:21:26;;;;;;;18.15;11.35;;;;;;;16.29;67.03;97301.06;4901494;28;20199;-78
2023/05/06 05:23:52;;;;;;;17.55;10.73;;;;;;;16.46;66.07;97298.00;4918884;28;20234;-78
2023/05/06 05:26:17;;;;;;;16.20;11.02;;;;;;;16.45;66.56;97302.50;4934382;28;20509;-80
2023/05/06 05:28:43;;;;;;;16.95;10.98;;;;;;;16.53;66.20;97298.44;4900104;28;20138;-80
2023/05/06 05:31:08;;;;;;;18.92;10.75;;;;;;;16.55;66.20;97306.84;4930229;28;20289;-79
2023/05/06 05:33:33;;;;;;;15.00;10.68;;;;;;;16.58;66.04;97303.66;4897971;28;20182;-79
2023/05/06 05:35:59;;;;;;;17.73;10.70;;;;;;;16.55;66.08;97298.94;4915105;28;20365;-79
2023/05/06 05:38:25;;;;;;;16.05;10.25;;;;;;;16.65;66.10;97306.72;4914233;28;20448;-79
2023/05/06 05:40:50;;;;;;;14.82;9.55;;;;;;;16.69;65.92;97306.16;4914563;28;20244;-79
2023/05/06 05:43:16;;;;;;;15.95;9.93;;;;;;;16.82;65.56;97310.75;4880036;28;20268;-80
2023/05/06 05:45:42;;;;;;;16.58;10.77;;;;;;;16.91;64.96;97306.44;5096620;22;20016;-78
2023/05/06 05:48:07;;;;;;;16.33;10.02;;;;;;;16.93;65.35;97311.44;4904013;28;20342;-79
2023/05/06 05:50:32;;;;;;;15.52;10.70;;;;;;;17.00;65.53;97302.16;4912534;28;20206;-78
2023/05/06 05:52:58;;;;;;;17.00;10.10;;;;;;;17.10;64.88;97305.69;4911236;28;20417;-81
2023/05/06 05:55:23;;;;;;;15.00;10.05;;;;;;;17.21;64.13;97301.88;4879522;28;20253;-79
2023/05/06 05:57:48;;;;;;;15.65;10.38;;;;;;;17.25;64.52;97304.72;4922052;28;20394;-78
2023/05/06 06:00:14;;;;;;;13.95;9.13;;;;;;;17.43;63.97;97303.94;5056356;22;20355;-79
2023/05/06 06:02:40;;;;;;;14.73;9.75;;;;;;;17.41;64.37;97309.50;5038158;23;20243;-79
2023/05/06 06:05:06;;;;;;;13.73;9.43;;;;;;;17.50;64.07;97298.34;4987409;23;20736;-79
2023/05/06 06:07:32;;;;;;;16.30;9.48;;;;;;;17.70;63.22;97303.28;4873437;28;20034;-79
2023/05/06 06:09:57;;;;;;;13.15;9.48;;;;;;;17.75;62.85;97305.03;4901233;28;20186;-79
2023/05/06 06:12:23;;;;;;;16.63;10.63;;;;;;;17.84;62.12;97313.06;4884161;28;20301;-79
2023/05/06 06:14:49;;;;;;;15.15;9.23;;;;;;;17.97;61.64;97320.25;4879263;28;20282;-79
2023/05/06 06:17:15;;;;;;;13.57;8.77;;;;;;;18.00;61.86;97322.34;4923962;28;20204;-79
2023/05/06 06:19:40;;;;;;;13.32;9.20;;;;;;;18.02;61.23;97325.44;4876277;28;20199;-80
2023/05/06 06:22:06;;;;;;;10.82;7.82;;;;;;;17.95;61.93;97325.81;4925105;28;20256;-79
2023/05/06 06:24:33;;;;;;;12.82;8.57;;;;;;;17.94;62.01;97320.84;4929730;28;20400;-80
2023/05/06 06:27:00;;;;;;;12.88;8.98;;;;;;;18.00;62.16;97327.59;4878218;28;20318;-80
2023/05/06 06:29:25;;;;;;;13.02;8.23;;;;;;;18.13;61.92;97324.22;4917211;28;20171;-80
2023/05/06 06:31:51;;;;;;;10.82;8.43;;;;;;;18.32;61.24;97324.16;4882557;28;20197;-79
2023/05/06 06:34:16;;;;;;;11.73;7.65;;;;;;;18.49;60.59;97328.06;4912542;28;20240;-79
2023/05/06 06:36:44;;;;;;;9.82;7.45;;;;;;;18.57;59.99;97321.34;4881683;28;20517;-80
2023/05/06 06:39:10;;;;;;;10.63;7.75;;;;;;;18.65;59.75;97332.00;5115998;22;20024;-78
2023/05/06 06:41:36;;;;;;;9.18;7.53;;;;;;;18.79;59.53;97334.63;5157512;22;20284;-79
2023/05/06 06:44:02;;;;;;;11.80;7.15;;;;;;;18.89;58.62;97320.50;4937343;28;20267;-79
2023/05/06 06:46:27;;;;;;;10.30;7.63;;;;;;;18.97;58.31;97322.47;4937109;28;20200;-79
2023/05/06 06:48:52;;;;;;;11.50;8.13;;;;;;;18.90;59.04;97325.50;4930510;28;20190;-78
2023/05/06 06:51:18;;;;;;;8.48;7.00;;;;;;;18.87;58.92;97326.06;4937941;28;20189;-78
2023/05/06 06:53:43;;;;;;;9.50;6.55;;;;;;;18.92;58.83;97322.56;4893629;28;20159;-78
2023/05/06 06:56:11;;;;;;;10.65;7.32;;;;;;;18.95;59.16;97323.81;4906460;28;20193;-78
2023/05/06 06:58:36;;;;;;;9.30;6.80;;;;;;;19.09;58.78;97322.72;4912419;28;20338;-79
2023/05/06 07:01:01;;;;;;;10.57;7.90;;;;;;;19.18;58.74;97322.81;4922668;28;20297;-79
2023/05/06 07:03:27;;;;;;;7.50;6.47;;;;;;;19.36;57.65;97321.09;4908695;28;20276;-80
2023/05/06 07:05:52;;;;;;;7.78;6.10;;;;;;;19.52;57.09;97318.91;4891279;28;20210;-79
2023/05/06 07:08:20;;;;;;;10.00;7.43;;;;;;;19.70;56.11;97321.69;4889173;28;20347;-79
2023/05/06 07:10:45;;;;;;;8.00;6.30;;;;;;;19.88;56.22;97318.09;4917910;28;20306;-80
2023/05/06 07:13:10;;;;;;;9.05;6.40;;;;;;;19.92;56.11;97323.56;4891382;28;20261;-79
2023/05/06 07:15:36;;;;;;;8.25;6.07;;;;;;;20.18;55.00;97329.00;4894010;28;20675;-79
2023/05/06 07:18:01;;;;;;;7.22;5.82;;;;;;;20.35;54.55;97325.66;4902357;28;20596;-77
2023/05/06 07:20:26;;;;;;;7.78;6.25;;;;;;;20.35;53.92;97331.72;4907108;28;20644;-77
2023/05/06 07:22:52;;;;;;;7.03;5.28;;;;;;;20.23;55.00;97322.81;4890697;28;20198;-77
2023/05/06 07:25:19;;;;;;;10.70;7.13;;;;;;;20.39;53.85;97332.69;4907900;28;20330;-78
2023/05/06 07:27:44;;;;;;;9.05;5.90;;;;;;;20.48;53.42;97335.38;4890507;28;20363;-78
2023/05/06 07:30:10;;;;;;;8.82;5.97;;;;;;;20.58;53.47;97334.34;4908153;28;20209;-78
2023/05/06 07:32:35;;;;;;;5.18;4.35;;;;;;;20.73;52.25;97333.16;4901382;28;20286;-78
2023/05/06 07:35:02;;;;;;;6.55;5.18;;;;;;;20.79;51.90;97342.53;4879011;28;20249;-78
2023/05/06 07:37:28;;;;;;;6.47;5.10;;;;;;;20.89;51.67;97333.53;4903271;28;20265;-78
2023/05/06 07:39:53;;;;;;;7.57;6.35;;;;;;;21.05;52.82;97336.53;4893000;28;20190;-78
2023/05/06 07:42:18;;;;;;;7.43;5.38;;;;;;;20.78;53.39;97340.97;4892068;28;20282;-78
2023/05/06 07:44:44;;;;;;;7.47;5.20;;;;;;;20.88;54.16;97337.25;4892129;28;20250;-79
2023/05/06 07:47:09;;;;;;;5.85;4.88;;;;;;;21.28;51.23;97345.91;4876326;28;20278;-78
2023/05/06 07:49:34;;;;;;;4.65;4.05;;;;;;;21.45;50.26;97345.13;4891754;28;20202;-78
2023/05/06 07:52:00;;;;;;;3.30;3.00;;;;;;;21.61;49.97;97339.41;4878907;28;20242;-78
2023/05/06 07:54:25;;;;;;;5.43;4.22;;;;;;;21.72;49.41;97345.97;4918412;28;20286;-78
2023/05/06 07:56:51;;;;;;;4.65;4.13;;;;;;;21.61;50.05;97342.06;4906734;28;20175;-78
2023/05/06 07:59:16;;;;;;;4.97;3.55;;;;;;;21.59;49.03;97349.53;4908267;28;20343;-78
2023/05/06 08:01:41;;;;;;;4.63;3.55;;;;;;;21.40;49.14;97339.97;4924287;28;20613;-79
2023/05/06 08:04:07;;;;;;;5.20;3.85;;;;;;;21.31;49.16;97341.84;4907182;28;20283;-78
2023/05/06 08:06:32;;;;;;;4.05;3.35;;;;;;;21.07;50.25;97340.41;4876959;28;20293;-78
2023/05/06 08:08:59;;;;;;;3.95;3.08;;;;;;;20.91;50.25;97341.94;4895955;28;20769;-78
2023/05/06 08:11:24;;;;;;;5.20;3.95;;;;;;;20.87;51.24;97346.28;4892432;28;20433;-78
2023/05/06 08:13:49;;;;;;;3.35;3.05;;;;;;;20.76;51.36;97340.50;4906131;28;20191;-79
2023/05/06 08:16:15;;;;;;;3.53;2.92;;;;;;;20.84;50.95;97344.28;4887655;28;20236;-79
2023/05/06 08:18:40;;;;;;;3.45;3.15;;;;;;;20.99;52.77;97343.84;4897533;28;20214;-79
2023/05/06 08:21:06;;;;;;;3.25;2.67;;;;;;;21.26;50.84;97336.72;4894225;28;20210;-78
2023/05/06 08:23:31;;;;;;;2.92;2.65;;;;;;;21.66;49.33;97344.53;4912730;28;20693;-79
2023/05/06 08:25:58;;;;;;;3.78;2.63;;;;;;;21.53;49.47;97348.91;4928066;28;20276;-78
2023/05/06 08:28:23;;;;;;;4.20;2.95;;;;;;;21.44;49.03;97351.53;4911805;28;20372;-78
2023/05/06 08:30:51;;;;;;;3.28;2.88;;;;;;;21.27;50.21;97357.59;4894913;28;20722;-78
2023/05/06 08:33:17;;;;;;;3.97;2.92;;;;;;;21.19;50.31;97352.28;4890545;28;20682;-78
2023/05/06 08:35:43;;;;;;;4.90;2.83;;;;;;;21.22;50.38;97357.75;4906804;28;20261;-79
2023/05/06 08:38:09;;;;;;;3.08;2.20;;;;;;;21.42;49.83;97347.63;4882506;28;20640;-78
2023/05/06 08:40:40;;;;;;;2.15;1.95;;;;;;;21.75;49.34;97347.97;4897022;28;20201;-78
2023/05/06 08:43:11;;;;;;;3.10;2.10;;;;;;;21.96;49.85;97347.34;4876871;28;20219;-79
2023/05/06 08:45:36;;;;;;;2.63;2.17;;;;;;;22.43;48.17;97345.53;4911925;28;20163;-78
2023/05/06 08:48:02;;;;;;;2.40;2.00;;;;;;;22.69;45.34;97346.53;4898468;28;20572;-79
2023/05/06 08:50:27;;;;;;;2.75;2.47;;;;;;;22.39;46.51;97338.53;4891966;28;20189;-78
2023/05/06 08:52:53;;;;;;;3.30;2.42;;;;;;;21.75;48.68;97340.03;4908676;28;20777;-78
2023/05/06 08:55:18;;;;;;;2.90;2.47;;;;;;;22.09;46.07;97346.38;4879629;28;20206;-78
2023/05/06 08:57:44;;;;;;;2.50;2.30;;;;;;;22.01;47.09;97349.84;4911241;28;20337;-78
2023/05/06 09:00:10;;;;;;;3.78;2.55;;;;;;;21.77;47.89;97345.78;4894774;28;20254;-78
2023/05/06 09:02:36;;;;;;;4.38;3.33;;;;;;;21.53;49.52;97340.97;4884983;28;20352;-79
2023/05/06 09:05:02;;;;;;;3.38;2.63;;;;;;;21.55;48.44;97332.72;4906673;28;20203;-78
2023/05/06 09:07:28;;;;;;;4.00;2.60;;;;;;;21.87;48.37;97329.56;4925276;28;20271;-77
2023/05/06 09:09:53;;;;;;;3.72;2.80;;;;;;;22.17;46.97;97336.84;4928240;28;20317;-78
2023/05/06 09:12:18;;;;;;;3.33;3.03;;;;;;;22.51;46.38;97332.56;4910205;28;20420;-78
2023/05/06 09:14:45;;;;;;;3.50;2.70;;;;;;;22.32;44.86;97325.75;4905995;28;20218;-78
2023/05/06 09:17:25;;;;;;;2.60;2.20;;;;;;;22.40;47.09;97324.19;4902054;28;20207;-78
2023/05/06 09:19:58;;;;;;;3.53;2.63;;;;;;;22.80;45.75;97327.25;4892098;28;20174;-78
2023/05/06 09:22:25;;;;;;;3.38;2.40;;;;;;;22.88;45.46;97327.56;4891373;28;20210;-78
2023/05/06 09:24:55;;;;;;;2.80;2.25;;;;;;;22.74;45.37;97323.25;4908662;28;20217;-78
2023/05/06 09:27:28;;;;;;;5.20;3.13;;;;;;;22.59;46.35;97323.78;4895833;28;20217;-78
2023/05/06 09:30:07;;;;;;;6.90;3.58;;;;;;;22.73;45.88;97328.88;4912985;28;20215;-78
2023/05/06 09:32:33;;;;;;;4.22;3.08;;;;;;;22.60;45.43;97328.00;4899269;28;20696;-79
2023/05/06 09:34:59;;;;;;;3.63;2.63;;;;;;;22.31;46.45;97328.72;4904662;28;20764;-79
2023/05/06 09:37:25;;;;;;;3.90;2.90;;;;;;;22.15;46.01;97325.78;4884399;28;20286;-79
2023/05/06 09:39:56;;;;;;;3.53;2.75;;;;;;;22.16;46.97;97324.69;4896022;28;20202;-79
2023/05/06 09:42:23;;;;;;;3.70;2.80;;;;;;;22.54;46.31;97323.97;4910521;28;20256;-78
2023/05/06 09:44:49;;;;;;;4.07;2.90;;;;;;;22.80;44.62;97321.19;4891695;28;20277;-78
2023/05/06 09:47:15;;;;;;;3.13;2.83;;;;;;;23.14;42.76;97308.84;4907682;28;20230;-78
2023/05/06 09:49:41;;;;;;;3.28;2.88;;;;;;;23.36;42.18;97313.06;4910660;28;20647;-78
2023/05/06 09:52:07;;;;;;;3.35;2.90;;;;;;;23.55;42.45;97308.03;4884029;28;20282;-78
2023/05/06 09:54:33;;;;;;;2.88;2.67;;;;;;;23.93;42.01;97311.66;4906958;28;20283;-77
2023/05/06 09:56:59;;;;;;;2.58;2.38;;;;;;;23.93;40.59;97306.31;4876068;28;20364;-78
2023/05/06 09:59:26;;;;;;;2.70;2.50;;;;;;;23.85;40.60;97307.19;4887109;28;20289;-78
2023/05/06 10:01:52;;;;;;;2.50;2.30;;;;;;;23.68;41.73;97306.22;4889313;28;20202;-78
2023/05/06 10:04:20;;;;;;;3.17;2.58;;;;;;;23.88;41.41;97311.84;4910726;28;20248;-78
2023/05/06 10:06:46;;;;;;;3.15;2.70;;;;;;;23.74;41.26;97299.59;4910314;28;20229;-78
2023/05/06 10:09:12;;;;;;;2.95;2.03;;;;;;;23.72;41.41;97304.47;4915378;28;20673;-78
2023/05/06 10:11:37;;;;;;;3.25;2.70;;;;;;;23.98;39.34;97303.47;4908869;28;20230;-78
2023/05/06 10:14:03;;;;;;;2.25;2.05;;;;;;;24.07;40.42;97306.03;4908506;28;20678;-78
2023/05/06 10:16:28;;;;;;;2.55;2.35;;;;;;;23.86;40.65;97301.53;4926584;28;20210;-78
2023/05/06 10:18:54;;;;;;;2.88;1.88;;;;;;;23.83;39.29;97304.06;4903593;28;20175;-78
2023/05/06 10:21:24;;;;;;;3.03;2.40;;;;;;;23.78;39.11;97306.91;4891226;28;20340;-78
2023/05/06 10:24:10;;;;;;;2.33;1.73;;;;;;;23.87;38.39;97297.00;4927566;28;20763;-78
2023/05/06 10:26:37;;;;;;;1.92;1.73;;;;;;;23.61;39.34;97291.91;4925658;28;20178;-78
2023/05/06 10:29:04;;;;;;;2.20;2.00;;;;;;;23.08;40.34;97294.97;4877829;28;20198;-78
2023/05/06 10:31:29;;;;;;;2.88;2.00;;;;;;;22.85;41.58;97294.44;4908588;28;20345;-79
2023/05/06 10:33:57;;;;;;;2.25;2.05;;;;;;;22.89;41.24;97284.72;4891377;28;20651;-78
2023/05/06 10:36:26;;;;;;;2.67;2.00;;;;;;;22.90;42.47;97288.19;4878858;28;20215;-78
2023/05/06 10:38:59;;;;;;;2.95;2.20;;;;;;;23.22;43.08;97284.09;4905161;28;20288;-78
2023/05/06 10:41:26;;;;;;;2.50;2.30;;;;;;;23.04;41.37;97282.63;4908872;28;20190;-79
2023/05/06 10:43:55;;;;;;;2.50;2.13;;;;;;;23.00;42.00;97283.28;4887476;28;20284;-79
2023/05/06 10:46:22;;;;;;;2.65;2.10;;;;;;;22.89;41.55;97281.31;4924170;28;21023;-78
2023/05/06 10:49:12;;;;;;;3.22;2.30;;;;;;;22.93;41.78;97277.69;4893933;28;20710;-79
2023/05/06 10:51:39;;;;;;;3.03;2.72;;;;;;;22.88;42.07;97277.88;4918116;28;20695;-79
2023/05/06 10:54:08;;;;;;;2.83;2.20;;;;;;;22.55;42.54;97278.53;4893310;28;20193;-79
2023/05/06 10:56:38;;;;;;;3.08;2.78;;;;;;;22.18;44.41;97280.84;4893584;28;20782;-80
2023/05/06 10:59:08;;;;;;;2.95;2.42;;;;;;;22.54;44.29;97274.31;4876847;28;20302;-79
2023/05/06 11:01:35;;;;;;;3.53;2.10;;;;;;;22.59;45.38;97276.03;4875715;28;20593;-79
2023/05/06 11:04:12;;;;;;;4.93;2.95;;;;;;;22.42;44.33;97275.00;4892991;28;20276;-79
2023/05/06 11:06:40;;;;;;;2.90;2.50;;;;;;;22.17;44.59;97273.97;4907150;28;20605;-80
2023/05/06 11:09:05;;;;;;;2.90;2.35;;;;;;;22.46;44.55;97277.03;4879756;28;20624;-79
2023/05/06 11:12:02;;;;;;;2.85;2.42;;;;;;;22.85;44.68;97273.22;4882537;28;20217;-78
2023/05/06 11:14:35;;;;;;;2.90;2.60;;;;;;;23.22;43.77;97270.00;4907161;28;20300;-79
2023/05/06 11:17:06;;;;;;;3.00;2.70;;;;;;;23.10;43.41;97268.06;4906007;28;20228;-79
2023/05/06 11:19:36;;;;;;;2.65;2.45;;;;;;;23.23;41.61;97264.38;4892731;28;20194;-78
2023/05/06 11:22:03;;;;;;;2.80;2.60;;;;;;;23.12;42.06;97263.22;4905521;28;20292;-78
2023/05/06 11:24:40;;;;;;;3.47;2.30;;;;;;;22.90;43.10;97262.41;4875505;28;20545;-79
2023/05/06 11:27:06;;;;;;;3.22;2.45;;;;;;;22.87;44.02;97259.63;4890157;28;20210;-79
2023/05/06 11:29:32;;;;;;;2.67;2.38;;;;;;;22.78;44.26;97260.44;4878672;28;20171;-78
2023/05/06 11:31:57;;;;;;;2.75;2.30;;;;;;;22.56;43.94;97264.16;4905909;28;20296;-79